Time;durP1;ratioP1;P1;durP2;ratioP2;P2;SDS_P1;SDS_P2;PMS_P1;PMS_P2;Temp;Humidity;BMP_temperature;BMP_pressure;BME280_temperature;BME280_humidity;BME280_pressure;Samples;Min_cycle;Max_cycle;Signal;HPM_P1;HPM_P2
2022/10/29 00:00:28;;;;;;;12.57;8.73;;;;;;;9.66;55.39;100604.91;5051141;28;20029;-67
2022/10/29 00:02:53;;;;;;;13.82;8.98;;;;;;;9.00;57.17;100607.41;5032550;28;20047;-67
2022/10/29 00:05:19;;;;;;;14.10;9.65;;;;;;;8.96;57.61;100603.53;5050718;28;20028;-67
2022/10/29 00:07:44;;;;;;;18.13;9.73;;;;;;;9.12;57.84;100602.22;5050509;28;20029;-69
2022/10/29 00:10:10;;;;;;;15.77;10.55;;;;;;;9.08;58.66;100609.53;5049661;28;20049;-67
2022/10/29 00:12:35;;;;;;;17.45;10.25;;;;;;;8.82;58.47;100604.25;5049775;28;20106;-67
2022/10/29 00:15:02;;;;;;;15.35;10.00;;;;;;;8.97;58.14;100608.00;5049521;28;20178;-67
2022/10/29 00:17:27;;;;;;;20.83;11.25;;;;;;;8.62;59.73;100607.25;5049969;28;20040;-67
2022/10/29 00:19:53;;;;;;;33.28;18.02;;;;;;;8.08;61.82;100605.16;5051512;28;20025;-67
2022/10/29 00:22:18;;;;;;;28.98;17.73;;;;;;;8.20;61.72;100596.41;5032824;28;20036;-67
2022/10/29 00:24:44;;;;;;;21.77;11.95;;;;;;;8.57;61.22;100583.88;5049847;28;20372;-68
2022/10/29 00:27:09;;;;;;;17.67;11.10;;;;;;;8.54;60.78;100590.00;5032062;28;20569;-67
2022/10/29 00:29:35;;;;;;;21.80;11.30;;;;;;;8.55;61.15;100586.09;5049803;28;20052;-68
2022/10/29 00:32:00;;;;;;;18.75;11.63;;;;;;;8.69;60.48;100589.03;5050097;28;20040;-67
2022/10/29 00:34:25;;;;;;;18.67;10.43;;;;;;;8.89;60.53;100577.94;5049746;28;20028;-67
2022/10/29 00:36:51;;;;;;;17.80;10.93;;;;;;;9.07;59.21;100587.50;5049477;28;20058;-67
2022/10/29 00:39:16;;;;;;;16.48;11.05;;;;;;;9.18;58.96;100583.47;5051263;28;20102;-67
2022/10/29 00:41:42;;;;;;;19.73;10.05;;;;;;;8.74;60.42;100576.16;5033153;28;20029;-67
2022/10/29 00:44:13;;;;;;;15.38;9.35;;;;;;;8.52;61.28;100581.13;5051509;28;20032;-67
2022/10/29 00:46:48;;;;;;;17.90;11.45;;;;;;;8.60;61.28;100581.59;5050828;28;20090;-67
2022/10/29 00:49:16;;;;;;;25.08;14.93;;;;;;;8.88;60.03;100587.44;5042461;28;20033;-67
2022/10/29 00:51:43;;;;;;;26.10;17.15;;;;;;;9.13;59.71;100575.97;5048369;28;20052;-67
2022/10/29 00:54:11;;;;;;;21.60;12.68;;;;;;;9.39;59.75;100575.63;5050933;28;20032;-67
2022/10/29 00:56:46;;;;;;;16.27;10.23;;;;;;;9.39;58.70;100577.63;5032586;28;20059;-69
2022/10/29 00:59:14;;;;;;;20.88;11.13;;;;;;;9.32;58.82;100577.97;5045777;28;20115;-67
2022/10/29 01:01:39;;;;;;;14.18;9.95;;;;;;;9.08;59.65;100569.63;5030481;28;20498;-69
2022/10/29 01:04:05;;;;;;;16.35;9.55;;;;;;;8.47;62.00;100571.94;5049495;28;20116;-67
2022/10/29 01:06:32;;;;;;;18.30;11.20;;;;;;;8.54;61.95;100567.69;5029449;28;20128;-68
2022/10/29 01:08:57;;;;;;;18.10;10.98;;;;;;;8.83;60.17;100569.66;5049431;28;20468;-67
2022/10/29 01:11:53;;;;;;;18.52;11.95;;;;;;;8.75;60.72;100570.28;5049041;28;20052;-68
2022/10/29 01:14:19;;;;;;;17.08;10.85;;;;;;;8.82;60.63;100569.94;5049329;28;20025;-67
2022/10/29 01:16:59;;;;;;;20.15;12.02;;;;;;;8.83;60.73;100571.59;5033302;28;20491;-68
2022/10/29 01:19:56;;;;;;;27.70;11.13;;;;;;;8.71;60.37;100572.00;5034070;28;20455;-67
2022/10/29 01:22:37;;;;;;;13.52;9.27;;;;;;;8.47;61.22;100567.19;5024838;28;20055;-67
2022/10/29 01:25:05;;;;;;;20.63;10.75;;;;;;;8.55;60.04;100569.38;5034349;28;20025;-67
2022/10/29 01:27:43;;;;;;;17.70;10.02;;;;;;;8.76;60.16;100557.19;5052708;28;20025;-67
2022/10/29 01:30:11;;;;;;;11.98;9.18;;;;;;;8.88;59.95;100560.38;5053455;28;20502;-67
2022/10/29 01:32:52;;;;;;;10.93;8.13;;;;;;;8.72;60.44;100551.34;5052478;28;20029;-67
2022/10/29 01:35:35;;;;;;;;;;;;;;;8.82;60.89;100551.25;5053040;28;20036;-67
2022/10/29 01:38:07;;;;;;;12.55;8.38;;;;;;;8.92;60.21;100549.44;5052085;28;19920;-68
2022/10/29 01:40:44;;;;;;;11.23;7.90;;;;;;;8.77;61.42;100547.69;5048612;28;20498;-67
2022/10/29 01:43:19;;;;;;;10.27;7.40;;;;;;;8.92;60.90;100544.69;5051936;28;20037;-67
2022/10/29 01:45:55;;;;;;;8.55;5.90;;;;;;;8.96;61.32;100559.72;5035113;28;20537;-67
2022/10/29 01:48:30;;;;;;;9.10;6.25;;;;;;;9.00;61.37;100557.16;5052817;28;20031;-67
2022/10/29 01:50:59;;;;;;;8.13;6.28;;;;;;;8.93;61.06;100553.88;5050123;28;20037;-69
2022/10/29 01:53:27;;;;;;;10.52;6.22;;;;;;;9.10;60.26;100554.25;5033797;28;20830;-68
2022/10/29 01:55:52;;;;;;;9.18;7.05;;;;;;;8.99;60.00;100549.91;5034680;28;20036;-67
2022/10/29 01:58:18;;;;;;;14.75;8.15;;;;;;;9.05;59.68;100536.72;5052312;28;20036;-67
2022/10/29 02:00:51;;;;;;;13.30;7.68;;;;;;;9.13;59.00;100544.47;5052935;28;20032;-67
2022/10/29 02:03:31;;;;;;;10.02;6.68;;;;;;;9.02;59.62;100549.31;5051282;28;20032;-67
2022/10/29 02:06:04;;;;;;;9.05;6.53;;;;;;;9.06;59.21;100547.63;5051605;28;20475;-67
2022/10/29 02:09:11;;;;;;;6.68;5.90;;;;;;;9.21;58.66;100559.69;5034286;28;20032;-68
2022/10/29 02:11:51;;;;;;;9.65;6.10;;;;;;;9.06;58.27;100561.56;4975588;28;20150;-67
2022/10/29 02:14:21;;;;;;;10.65;7.30;;;;;;;8.88;58.32;100551.16;4990139;28;20425;-67
2022/10/29 02:16:48;;;;;;;11.75;6.93;;;;;;;8.91;59.25;100558.94;5010421;28;20113;-68
2022/10/29 02:19:13;;;;;;;8.13;6.13;;;;;;;8.76;58.75;100562.75;5051845;28;20029;-67
2022/10/29 02:21:41;;;;;;;10.15;6.95;;;;;;;8.73;59.92;100561.38;5033757;28;20384;-67
2022/10/29 02:24:07;;;;;;;11.35;8.15;;;;;;;8.86;59.69;100565.41;5032880;28;20025;-67
2022/10/29 02:26:32;;;;;;;17.05;9.27;;;;;;;8.75;59.70;100561.06;5051954;28;20108;-67
2022/10/29 02:28:58;;;;;;;13.38;9.40;;;;;;;8.43;59.90;100554.94;5032244;28;20024;-67
2022/10/29 02:31:23;;;;;;;18.00;10.32;;;;;;;7.96;62.19;100543.41;5051458;28;20040;-69
2022/10/29 02:33:49;;;;;;;17.25;10.35;;;;;;;7.72;63.40;100546.94;5050744;28;20033;-68
2022/10/29 02:36:16;;;;;;;16.23;11.20;;;;;;;7.86;62.66;100547.13;5051883;28;20056;-67
2022/10/29 02:38:41;;;;;;;16.98;11.50;;;;;;;7.41;63.78;100542.38;5035480;28;20163;-67
2022/10/29 02:41:06;;;;;;;19.17;12.05;;;;;;;7.25;64.91;100540.81;5034001;28;20021;-67
2022/10/29 02:43:32;;;;;;;21.83;11.88;;;;;;;7.19;65.20;100551.16;5052987;28;20025;-67
2022/10/29 02:46:18;;;;;;;15.77;10.45;;;;;;;6.96;66.39;100538.72;5052039;28;20025;-67
2022/10/29 02:48:44;;;;;;;22.73;9.95;;;;;;;7.14;66.05;100538.09;5033359;28;20443;-67
2022/10/29 02:51:10;;;;;;;20.40;9.35;;;;;;;7.61;64.96;100548.97;5050312;28;20771;-67
2022/10/29 02:53:36;;;;;;;17.55;11.13;;;;;;;7.46;64.25;100549.88;5032906;28;20043;-67
2022/10/29 02:56:21;;;;;;;23.25;11.82;;;;;;;7.21;65.45;100559.19;5032643;28;20115;-68
2022/10/29 02:58:47;;;;;;;15.40;9.65;;;;;;;7.56;64.58;100547.03;5033560;28;20040;-67
2022/10/29 03:01:12;;;;;;;15.05;9.80;;;;;;;7.69;64.11;100551.13;5024159;28;20033;-67
2022/10/29 03:03:38;;;;;;;26.63;10.00;;;;;;;8.01;62.80;100549.75;5050030;28;20025;-67
2022/10/29 03:06:03;;;;;;;19.48;12.80;;;;;;;8.16;62.63;100561.91;5051082;28;20033;-67
2022/10/29 03:08:29;;;;;;;15.75;11.93;;;;;;;8.26;61.69;100556.25;5051833;28;20060;-67
2022/10/29 03:10:54;;;;;;;17.80;9.35;;;;;;;8.35;61.25;100544.47;5049797;28;20049;-67
2022/10/29 03:13:20;;;;;;;28.52;10.70;;;;;;;8.07;61.82;100546.91;5050793;28;20110;-67
2022/10/29 03:15:45;;;;;;;22.48;9.45;;;;;;;8.18;62.38;100542.91;5050941;28;20025;-67
2022/10/29 03:18:11;;;;;;;20.80;9.95;;;;;;;8.35;61.10;100541.66;5051118;28;20495;-67
2022/10/29 03:20:37;;;;;;;15.10;8.73;;;;;;;8.39;60.65;100542.75;5033324;28;20052;-67
2022/10/29 03:23:05;;;;;;;13.20;8.38;;;;;;;8.48;60.35;100540.13;5051080;28;20111;-67
2022/10/29 03:25:30;;;;;;;15.85;9.23;;;;;;;8.29;59.91;100544.50;5050433;28;20025;-68
2022/10/29 03:27:56;;;;;;;19.23;9.93;;;;;;;8.18;61.96;100544.91;5051071;28;20090;-67
2022/10/29 03:30:21;;;;;;;15.68;9.20;;;;;;;8.22;61.83;100532.88;5050735;28;20423;-68
2022/10/29 03:32:47;;;;;;;16.27;9.52;;;;;;;8.24;61.78;100533.41;5050386;28;20127;-67
2022/10/29 03:35:14;;;;;;;18.75;9.25;;;;;;;8.34;61.72;100534.44;5051082;28;20559;-68
2022/10/29 03:37:40;;;;;;;20.02;10.25;;;;;;;8.26;62.27;100530.31;5050526;28;20393;-68
2022/10/29 03:40:07;;;;;;;18.38;10.80;;;;;;;8.34;62.63;100540.00;5049656;28;20036;-67
2022/10/29 03:42:32;;;;;;;16.75;9.02;;;;;;;8.29;62.58;100535.31;5033709;28;20033;-67
2022/10/29 03:44:59;;;;;;;19.52;8.23;;;;;;;8.22;63.09;100530.09;5051933;28;20027;-67
2022/10/29 03:47:25;;;;;;;17.40;10.57;;;;;;;8.13;63.35;100523.47;5050560;28;20100;-67
2022/10/29 03:49:50;;;;;;;13.63;8.50;;;;;;;8.14;63.02;100522.34;5049575;28;20151;-67
2022/10/29 03:52:16;;;;;;;17.17;9.48;;;;;;;8.19;63.08;100513.13;5048835;28;20462;-68
2022/10/29 03:54:41;;;;;;;20.33;9.52;;;;;;;8.12;63.79;100524.59;5049469;28;20484;-67
2022/10/29 03:57:07;;;;;;;15.55;9.13;;;;;;;8.08;63.58;100521.56;5032620;28;20060;-67
2022/10/29 03:59:32;;;;;;;15.52;9.15;;;;;;;8.10;63.25;100529.66;5031525;28;20033;-67
2022/10/29 04:01:58;;;;;;;19.35;9.98;;;;;;;8.08;63.73;100531.88;5031890;28;20087;-67
2022/10/29 04:04:23;;;;;;;21.02;9.13;;;;;;;8.25;63.12;100537.00;5049458;28;20021;-67
2022/10/29 04:06:48;;;;;;;15.20;9.02;;;;;;;8.24;62.90;100540.94;5022641;28;20040;-67
2022/10/29 04:09:14;;;;;;;29.48;15.80;;;;;;;7.39;64.86;100533.50;5030819;28;20029;-67
2022/10/29 04:11:39;;;;;;;22.50;13.15;;;;;;;6.81;67.93;100529.31;5049170;28;20045;-66
2022/10/29 04:14:05;;;;;;;17.58;11.35;;;;;;;6.45;69.85;100527.47;5050345;28;20385;-67
2022/10/29 04:16:30;;;;;;;21.10;13.25;;;;;;;6.29;69.94;100525.84;5050988;28;20361;-67
2022/10/29 04:18:56;;;;;;;19.25;12.48;;;;;;;6.35;70.38;100515.53;5051080;28;20036;-67
2022/10/29 04:21:21;;;;;;;25.17;12.27;;;;;;;6.20;71.26;100524.72;5049851;28;20519;-67
2022/10/29 04:23:48;;;;;;;22.33;13.43;;;;;;;6.00;72.94;100510.56;5031852;28;20021;-68
2022/10/29 04:26:13;;;;;;;15.40;11.32;;;;;;;6.00;73.05;100521.66;5031412;28;20437;-68
2022/10/29 04:28:39;;;;;;;16.90;11.07;;;;;;;5.95;72.80;100518.06;5032058;28;20029;-67
2022/10/29 04:31:06;;;;;;;19.00;12.15;;;;;;;5.93;72.33;100523.06;5033080;28;20033;-67
2022/10/29 04:33:32;;;;;;;19.02;12.52;;;;;;;6.22;70.82;100512.22;5032061;28;20036;-67
2022/10/29 04:35:57;;;;;;;28.38;14.25;;;;;;;6.19;69.76;100512.81;5032358;28;20033;-68
2022/10/29 04:38:23;;;;;;;29.08;17.00;;;;;;;5.96;70.11;100520.56;5030201;28;20036;-67
2022/10/29 04:40:48;;;;;;;37.42;20.33;;;;;;;6.03;69.15;100523.09;5032080;28;20111;-67
2022/10/29 04:43:14;;;;;;;42.85;28.63;;;;;;;6.33;68.88;100524.16;5045578;28;20029;-67
2022/10/29 04:45:40;;;;;;;38.80;24.23;;;;;;;6.38;68.76;100538.06;5048658;28;20029;-67
2022/10/29 04:48:06;;;;;;;38.90;20.88;;;;;;;6.35;69.33;100535.00;5030559;28;20032;-69
2022/10/29 04:50:35;;;;;;;22.33;14.32;;;;;;;6.47;68.91;100532.75;5048880;28;20029;-67
2022/10/29 04:53:02;;;;;;;21.00;12.55;;;;;;;6.34;69.25;100541.66;5051225;28;20025;-67
2022/10/29 04:55:27;;;;;;;19.35;11.18;;;;;;;6.17;70.59;100534.47;5054226;28;20035;-67
2022/10/29 04:57:53;;;;;;;19.92;11.90;;;;;;;5.64;73.08;100534.72;5051871;28;20132;-67
2022/10/29 05:00:19;;;;;;;16.83;11.50;;;;;;;5.54;75.13;100541.06;5053106;28;20029;-68
2022/10/29 05:02:49;;;;;;;30.67;13.63;;;;;;;5.62;73.94;100538.59;5045947;28;20065;-67
2022/10/29 05:05:16;;;;;;;31.88;11.15;;;;;;;5.76;73.17;100532.50;5051362;28;20025;-67
2022/10/29 05:07:42;;;;;;;28.15;15.15;;;;;;;5.67;73.50;100523.91;5052276;28;20044;-67
2022/10/29 05:10:08;;;;;;;51.80;23.75;;;;;;;5.79;72.92;100544.97;5052611;28;20049;-67
2022/10/29 05:12:33;;;;;;;72.97;43.25;;;;;;;5.61;72.46;100547.19;5050591;28;20523;-72
2022/10/29 05:14:58;;;;;;;52.35;31.35;;;;;;;5.40;71.73;100552.69;5052394;28;20025;-65
2022/10/29 05:17:24;;;;;;;55.97;25.77;;;;;;;5.08;72.94;100550.97;5050895;28;20491;-69
2022/10/29 05:19:49;;;;;;;33.30;19.65;;;;;;;4.98;72.52;100550.91;5051703;28;20021;-65
2022/10/29 05:22:15;;;;;;;24.08;15.20;;;;;;;4.83;73.75;100551.66;5050441;28;20033;-68
2022/10/29 05:24:40;;;;;;;53.13;13.45;;;;;;;4.97;73.96;100555.59;5035706;28;20384;-67
2022/10/29 05:27:06;;;;;;;30.33;17.90;;;;;;;5.58;72.21;100554.13;5053726;28;20032;-67
2022/10/29 05:29:32;;;;;;;43.72;23.10;;;;;;;5.87;70.21;100555.56;5051860;28;20032;-67
2022/10/29 05:31:58;;;;;;;24.77;12.60;;;;;;;6.06;69.95;100557.81;5051973;28;20021;-67
2022/10/29 05:34:23;;;;;;;30.35;11.98;;;;;;;6.40;68.79;100571.13;5050928;28;20025;-67
2022/10/29 05:36:49;;;;;;;21.25;12.18;;;;;;;6.21;68.17;100573.63;5054127;28;20411;-66
2022/10/29 05:39:14;;;;;;;54.72;20.52;;;;;;;6.12;69.73;100576.13;5052708;28;20032;-66
2022/10/29 05:41:40;;;;;;;40.20;15.02;;;;;;;5.87;71.02;100577.75;5052252;28;20028;-66
2022/10/29 05:44:05;;;;;;;35.78;15.98;;;;;;;5.85;71.96;100575.28;5051851;28;20025;-67
2022/10/29 05:46:31;;;;;;;56.08;15.48;;;;;;;5.92;72.16;100575.00;5038271;28;20554;-67
2022/10/29 05:48:56;;;;;;;33.15;14.40;;;;;;;6.39;70.51;100580.56;5051638;28;20029;-68
2022/10/29 05:51:22;;;;;;;33.30;13.38;;;;;;;6.53;69.98;100583.59;5052677;28;20048;-68
2022/10/29 05:53:47;;;;;;;32.63;13.77;;;;;;;6.75;69.39;100577.72;5051117;28;20033;-71
2022/10/29 05:56:13;;;;;;;30.63;13.65;;;;;;;7.24;68.19;100578.09;5033404;28;20032;-68
2022/10/29 05:58:38;;;;;;;32.78;13.75;;;;;;;7.26;67.84;100573.91;5033788;28;20454;-67
2022/10/29 06:01:08;;;;;;;41.63;19.70;;;;;;;7.20;69.05;100575.06;5029199;28;20029;-67
2022/10/29 06:03:34;;;;;;;66.35;31.00;;;;;;;7.41;68.78;100575.78;5052551;28;20027;-69
2022/10/29 06:05:59;;;;;;;28.00;15.90;;;;;;;7.07;70.32;100586.81;5052775;28;20527;-69
2022/10/29 06:08:25;;;;;;;31.75;13.68;;;;;;;7.24;70.20;100589.22;5035505;28;20164;-72
2022/10/29 06:10:50;;;;;;;31.05;15.07;;;;;;;7.55;69.85;100591.88;5030470;28;20081;-71
2022/10/29 06:13:18;;;;;;;30.63;15.10;;;;;;;7.80;68.84;100587.25;5029181;28;20409;-71
2022/10/29 06:15:44;;;;;;;111.07;21.08;;;;;;;8.18;68.60;100587.50;5024674;28;20064;-69
2022/10/29 06:18:10;;;;;;;57.47;18.20;;;;;;;8.49;67.96;100589.19;5030690;28;20045;-70
2022/10/29 06:20:37;;;;;;;35.97;14.07;;;;;;;8.73;66.66;100592.06;5028629;28;20021;-70
2022/10/29 06:23:04;;;;;;;24.42;13.95;;;;;;;8.78;67.00;100594.78;5019367;28;20029;-68
2022/10/29 06:25:29;;;;;;;39.65;14.23;;;;;;;8.80;65.80;100592.53;5025369;28;20513;-68
2022/10/29 06:28:04;;;;;;;61.08;16.15;;;;;;;8.70;66.53;100592.66;5027948;28;20067;-68
2022/10/29 06:30:31;;;;;;;28.27;12.88;;;;;;;8.97;64.97;100589.28;5026737;28;20520;-68
2022/10/29 06:32:57;;;;;;;22.35;12.30;;;;;;;9.04;65.12;100594.50;5030200;28;20030;-67
2022/10/29 06:35:23;;;;;;;39.38;13.20;;;;;;;9.10;64.26;100596.13;5029009;28;20026;-68
2022/10/29 06:37:48;;;;;;;26.65;12.90;;;;;;;9.13;64.96;100592.72;5027885;28;20108;-68
2022/10/29 06:40:14;;;;;;;18.30;11.02;;;;;;;9.11;65.30;100586.59;5023656;28;20079;-67
2022/10/29 06:42:39;;;;;;;22.58;11.75;;;;;;;9.26;64.57;100593.13;5028740;28;20029;-68
2022/10/29 06:45:05;;;;;;;26.40;10.88;;;;;;;9.47;63.73;100599.28;5030371;28;20033;-67
2022/10/29 06:47:45;;;;;;;25.98;12.25;;;;;;;9.77;63.46;100585.16;5027437;28;20046;-68
2022/10/29 06:50:12;;;;;;;18.73;11.05;;;;;;;10.04;62.39;100590.06;5028867;28;20035;-68
2022/10/29 06:52:38;;;;;;;24.48;10.80;;;;;;;10.15;62.23;100593.53;5032688;28;20086;-68
2022/10/29 06:55:05;;;;;;;20.80;11.45;;;;;;;10.38;61.52;100593.72;5029275;28;20037;-68
2022/10/29 06:57:30;;;;;;;29.38;12.32;;;;;;;10.43;60.96;100593.66;5029818;28;20037;-68
2022/10/29 06:59:56;;;;;;;37.38;12.73;;;;;;;10.19;60.74;100585.34;5031421;28;20040;-69
2022/10/29 07:02:22;;;;;;;33.22;12.18;;;;;;;10.25;61.16;100584.94;5031705;28;20488;-70
2022/10/29 07:04:48;;;;;;;18.83;10.07;;;;;;;10.30;61.08;100591.63;5032098;28;20060;-69
2022/10/29 07:07:13;;;;;;;24.48;10.10;;;;;;;10.39;60.47;100587.00;5029321;28;20065;-69
2022/10/29 07:09:39;;;;;;;12.35;9.43;;;;;;;10.63;59.34;100588.84;5030535;28;20103;-69
2022/10/29 07:12:05;;;;;;;20.60;8.60;;;;;;;10.92;58.60;100577.38;5051967;28;20056;-69
2022/10/29 07:14:31;;;;;;;23.40;10.80;;;;;;;10.95;58.71;100570.28;5047800;28;20025;-68
2022/10/29 07:16:56;;;;;;;12.70;9.55;;;;;;;10.99;58.99;100582.56;5042287;28;20025;-69
2022/10/29 07:19:22;;;;;;;11.80;8.15;;;;;;;10.93;58.91;100579.03;5025680;28;20048;-69
2022/10/29 07:21:47;;;;;;;14.05;8.88;;;;;;;10.97;59.11;100572.78;5047541;28;20029;-69
2022/10/29 07:24:13;;;;;;;15.73;10.20;;;;;;;11.11;58.78;100572.81;5049141;28;20448;-70
2022/10/29 07:26:39;;;;;;;16.73;9.23;;;;;;;11.32;58.38;100576.00;5047179;28;20460;-70
2022/10/29 07:29:04;;;;;;;12.98;9.10;;;;;;;11.56;57.62;100570.13;5031504;28;20495;-74
2022/10/29 07:31:30;;;;;;;16.98;9.43;;;;;;;11.86;57.03;100567.78;5049913;28;20558;-69
2022/10/29 07:33:56;;;;;;;20.35;9.50;;;;;;;12.02;56.56;100570.22;5051094;28;20033;-72
2022/10/29 07:36:23;;;;;;;19.27;10.18;;;;;;;11.83;56.77;100562.81;5051264;28;20049;-70
2022/10/29 07:38:48;;;;;;;16.35;9.85;;;;;;;12.13;55.92;100559.59;5050641;28;20385;-69
2022/10/29 07:41:14;;;;;;;14.20;10.40;;;;;;;12.30;55.16;100553.25;5048023;28;20099;-72
2022/10/29 07:43:40;;;;;;;15.52;9.18;;;;;;;12.19;55.63;100559.16;5027978;28;20459;-70
2022/10/29 07:46:06;;;;;;;11.77;8.60;;;;;;;12.25;54.79;100561.81;5050535;28;20186;-71
2022/10/29 07:48:31;;;;;;;21.95;9.30;;;;;;;12.24;55.14;100546.94;5049965;28;20369;-68
2022/10/29 07:51:01;;;;;;;15.80;9.20;;;;;;;12.39;54.61;100562.56;5029423;28;20032;-68
2022/10/29 07:53:26;;;;;;;18.77;9.82;;;;;;;12.46;54.39;100550.88;5051165;28;20032;-68
2022/10/29 07:55:53;;;;;;;20.83;8.52;;;;;;;12.71;53.72;100560.59;5048853;28;20458;-71
2022/10/29 07:58:19;;;;;;;11.82;7.82;;;;;;;12.84;53.61;100556.00;5041202;28;20423;-69
2022/10/29 08:00:44;;;;;;;15.18;8.43;;;;;;;13.20;52.47;100552.16;5048952;28;20028;-71
2022/10/29 08:03:11;;;;;;;13.35;6.60;;;;;;;13.12;52.58;100560.56;5047537;28;20560;-71
2022/10/29 08:05:37;;;;;;;14.55;7.43;;;;;;;13.23;52.18;100549.88;5049922;28;20020;-69
2022/10/29 08:08:04;;;;;;;15.90;7.13;;;;;;;13.55;51.27;100548.63;5027356;28;20079;-67
2022/10/29 08:10:31;;;;;;;24.60;12.48;;;;;;;13.75;51.33;100546.31;5032804;28;20055;-70
2022/10/29 08:12:59;;;;;;;15.77;8.57;;;;;;;13.94;50.85;100545.16;5047119;28;20123;-69
2022/10/29 08:15:26;;;;;;;11.32;7.13;;;;;;;14.01;50.08;100543.50;5051000;28;20028;-69
2022/10/29 08:17:52;;;;;;;17.05;10.15;;;;;;;14.00;50.07;100539.03;5049684;28;20411;-69
2022/10/29 08:20:19;;;;;;;27.20;15.07;;;;;;;14.01;50.16;100539.88;5050191;28;20024;-69
2022/10/29 08:22:45;;;;;;;8.38;5.75;;;;;;;13.96;49.45;100534.41;5038599;28;20036;-68
2022/10/29 08:25:11;;;;;;;20.13;5.97;;;;;;;14.37;49.17;100527.41;5050819;28;20480;-69
2022/10/29 08:27:36;;;;;;;8.23;6.53;;;;;;;14.48;48.52;100532.66;5054006;28;20100;-70
2022/10/29 08:30:07;;;;;;;14.02;8.75;;;;;;;14.48;48.85;100527.03;5039417;28;20053;-71
2022/10/29 08:32:33;;;;;;;20.70;13.77;;;;;;;14.39;49.18;100521.41;5049413;28;20452;-69
2022/10/29 08:34:58;;;;;;;20.27;13.38;;;;;;;14.45;48.63;100534.16;5054209;28;20032;-68
2022/10/29 08:37:24;;;;;;;16.25;9.32;;;;;;;14.63;47.82;100528.47;5052869;28;20036;-69
2022/10/29 08:39:49;;;;;;;15.30;5.95;;;;;;;14.60;48.21;100511.09;5053575;28;20029;-68
2022/10/29 08:42:56;;;;;;;11.52;5.85;;;;;;;14.59;47.97;100514.22;5054268;28;20043;-69
2022/10/29 08:45:29;;;;;;;7.95;5.32;;;;;;;15.06;47.04;100521.00;5053103;28;20025;-69
2022/10/29 08:48:47;;;;;;;9.07;5.50;;;;;;;15.18;47.13;100518.28;5054194;28;20032;-69
2022/10/29 08:51:27;;;;;;;5.97;5.20;;;;;;;15.38;46.53;100518.66;5046003;28;20052;-70
2022/10/29 08:53:54;;;;;;;11.73;5.80;;;;;;;15.52;45.78;100519.22;5036334;28;20029;-73
2022/10/29 08:56:38;;;;;;;7.18;5.38;;;;;;;15.52;45.37;100516.41;5050579;28;20033;-70
2022/10/29 08:59:24;;;;;;;8.93;5.35;;;;;;;15.83;45.33;100511.50;5041440;28;20412;-72
2022/10/29 09:01:52;;;;;;;11.80;4.95;;;;;;;16.11;44.27;100500.47;5030058;28;20037;-76
2022/10/29 09:04:27;;;;;;;11.07;5.53;;;;;;;16.26;44.22;100510.28;5035462;28;20060;-73
2022/10/29 09:07:01;;;;;;;7.43;5.70;;;;;;;16.38;43.91;100503.03;5051997;28;20028;-69
2022/10/29 09:09:38;;;;;;;7.05;5.97;;;;;;;16.24;44.12;100506.16;5043616;28;20029;-71
2022/10/29 09:12:22;;;;;;;10.25;5.28;;;;;;;16.50;43.70;100493.75;5046344;28;20581;-72
2022/10/29 09:15:01;;;;;;;8.18;5.90;;;;;;;17.00;43.08;100488.97;5027470;28;20033;-73
2022/10/29 09:17:30;;;;;;;14.13;6.70;;;;;;;16.94;42.87;100485.53;5052972;28;20510;-76
2022/10/29 09:20:19;;;;;;;10.38;5.88;;;;;;;17.40;42.12;100484.56;5035318;28;20111;-70
2022/10/29 09:22:58;;;;;;;9.23;4.97;;;;;;;17.63;41.18;100482.03;5003324;28;20036;-70
2022/10/29 09:25:42;;;;;;;18.35;6.55;;;;;;;17.47;41.36;100470.63;5049734;28;20017;-70
2022/10/29 09:28:29;;;;;;;6.50;4.38;;;;;;;17.86;40.42;100474.97;5051140;28;20472;-69
2022/10/29 09:31:04;;;;;;;7.07;5.30;;;;;;;18.01;40.47;100468.53;5054768;28;20495;-68
2022/10/29 09:33:31;;;;;;;5.18;4.68;;;;;;;17.85;40.33;100473.31;5054235;28;20031;-69
2022/10/29 09:35:58;;;;;;;11.50;5.18;;;;;;;17.97;40.08;100453.44;5053332;28;20028;-68
2022/10/29 09:38:30;;;;;;;9.85;4.63;;;;;;;18.06;40.29;100461.84;5052703;28;20396;-69
2022/10/29 09:40:57;;;;;;;5.38;3.72;;;;;;;18.37;39.56;100460.22;5036481;28;20483;-68
2022/10/29 09:43:45;;;;;;;4.53;3.97;;;;;;;18.58;38.85;100444.97;5035729;28;20414;-69
2022/10/29 09:46:25;;;;;;;8.38;5.05;;;;;;;18.84;38.69;100450.06;5053296;28;20107;-68
2022/10/29 09:49:15;;;;;;;8.25;4.97;;;;;;;19.01;38.36;100446.06;5054258;28;20060;-69
2022/10/29 09:51:59;;;;;;;7.40;4.93;;;;;;;19.07;37.85;100432.41;5051974;28;20025;-68
2022/10/29 09:54:28;;;;;;;7.30;4.85;;;;;;;19.12;37.76;100440.63;5053137;28;20029;-69
2022/10/29 09:56:55;;;;;;;14.07;5.68;;;;;;;19.24;37.54;100433.97;5036144;28;20561;-68
2022/10/29 09:59:43;;;;;;;14.02;5.68;;;;;;;19.17;37.54;100426.13;5052072;28;20037;-68
2022/10/29 10:02:29;;;;;;;9.52;5.65;;;;;;;19.33;37.22;100426.09;5052999;28;20029;-68
2022/10/29 10:05:02;;;;;;;8.10;5.45;;;;;;;19.21;37.43;100418.53;5053988;28;20021;-68
2022/10/29 10:07:28;;;;;;;5.40;4.25;;;;;;;19.29;36.94;100411.00;5053774;28;20491;-69
2022/10/29 10:09:56;;;;;;;9.55;4.63;;;;;;;19.50;36.70;100415.50;5026785;28;20063;-69
2022/10/29 10:12:28;;;;;;;16.92;10.48;;;;;;;19.51;36.62;100405.81;5048390;28;20403;-69
2022/10/29 10:15:15;;;;;;;11.18;4.80;;;;;;;19.62;36.31;100401.16;5040435;28;20071;-69
2022/10/29 10:18:04;;;;;;;7.47;5.25;;;;;;;19.70;36.03;100396.44;5022191;28;20032;-69
2022/10/29 10:20:35;;;;;;;12.38;5.13;;;;;;;19.57;36.49;100394.97;5043815;28;20017;-69
2022/10/29 10:23:01;;;;;;;11.32;5.90;;;;;;;19.50;36.54;100390.78;5052073;28;20028;-69
2022/10/29 10:25:37;;;;;;;10.80;6.00;;;;;;;18.85;37.56;100388.53;5051854;28;20431;-69
2022/10/29 10:28:20;;;;;;;9.50;5.68;;;;;;;19.06;37.61;100382.53;5039656;28;20059;-69
2022/10/29 10:31:11;;;;;;;9.75;6.38;;;;;;;19.50;37.36;100367.28;5047058;28;20397;-69
2022/10/29 10:33:51;;;;;;;53.78;18.75;;;;;;;19.67;36.29;100366.00;5039306;28;20032;-68
2022/10/29 10:36:20;;;;;;;148.37;56.40;;;;;;;19.70;36.42;100361.56;5048050;28;20052;-69
2022/10/29 10:38:49;;;;;;;199.60;73.10;;;;;;;19.99;35.98;100364.97;5050863;28;20434;-70
2022/10/29 10:41:23;;;;;;;23.60;10.13;;;;;;;20.19;35.51;100362.88;5043866;28;20093;-69
2022/10/29 10:43:48;;;;;;;15.63;6.70;;;;;;;20.32;35.45;100354.97;5046523;28;20028;-68
2022/10/29 10:46:22;;;;;;;9.75;7.05;;;;;;;20.40;35.22;100350.25;5029131;28;20029;-66
2022/10/29 10:49:00;;;;;;;10.57;6.60;;;;;;;20.39;35.00;100348.59;5032543;28;20028;-66
2022/10/29 10:51:37;;;;;;;9.48;6.22;;;;;;;20.38;35.47;100344.09;5038038;28;20025;-66
2022/10/29 10:54:22;;;;;;;10.48;5.70;;;;;;;20.50;34.95;100343.09;5027368;28;20029;-66
2022/10/29 10:56:56;;;;;;;17.55;6.75;;;;;;;20.54;35.34;100339.09;5032171;28;20091;-66
2022/10/29 10:59:29;;;;;;;12.10;7.05;;;;;;;20.58;35.30;100330.66;5032202;28;20142;-67
2022/10/29 11:01:59;;;;;;;11.50;6.00;;;;;;;20.70;34.13;100323.91;5047831;28;20024;-66
2022/10/29 11:04:31;;;;;;;;;;;;;;;20.79;34.23;100323.63;5040890;28;20008;-67
2022/10/29 11:07:03;;;;;;;10.00;6.25;;;;;;;20.51;34.71;100319.16;5050388;28;21311;-66
2022/10/29 11:09:39;;;;;;;18.77;7.63;;;;;;;20.56;34.81;100319.66;5032043;28;20052;-65
2022/10/29 11:12:28;;;;;;;19.27;8.02;;;;;;;20.80;34.84;100305.34;5050102;28;20053;-67
2022/10/29 11:15:00;;;;;;;19.08;9.65;;;;;;;20.67;34.82;100302.75;5047571;28;20063;-66
2022/10/29 11:17:39;;;;;;;12.18;7.88;;;;;;;20.71;34.75;100291.44;5050477;28;20037;-66
2022/10/29 11:20:19;;;;;;;16.42;9.48;;;;;;;20.67;34.96;100293.41;5030620;28;20086;-66
2022/10/29 11:23:12;;;;;;;10.27;6.00;;;;;;;20.85;34.51;100291.66;5050524;28;20025;-66
2022/10/29 11:25:49;;;;;;;9.57;4.63;;;;;;;20.66;34.73;100277.56;5028507;28;20037;-67
2022/10/29 11:28:26;;;;;;;10.98;4.78;;;;;;;20.73;34.69;100289.84;5047378;28;20083;-67
2022/10/29 11:31:17;;;;;;;13.82;4.07;;;;;;;21.03;33.94;100279.69;5048776;28;20025;-66